createdAt,value
2023-04-15T00:00:58.139Z,96.09
2023-04-15T00:02:35.508Z,96.09
2023-04-15T00:03:24.847Z,96.52
2023-04-15T00:05:51.972Z,97.42
2023-04-15T00:07:35.330Z,97.42
2023-04-15T00:08:18.427Z,96.92
2023-04-15T00:10:46.505Z,97.24
2023-04-15T00:12:35.335Z,97.24
2023-04-15T00:13:13.082Z,97.81
2023-04-15T00:15:39.449Z,98.94
2023-04-15T00:17:35.389Z,98.94
2023-04-15T00:18:05.854Z,99.26
2023-04-15T00:20:32.258Z,99.31
2023-04-15T00:22:35.324Z,99.31
2023-04-15T00:22:59.363Z,100.00
2023-04-15T00:25:25.894Z,100.00
2023-04-15T00:27:35.405Z,100.00
2023-04-15T00:27:52.581Z,100.00
2023-04-15T00:30:19.617Z,100.00
2023-04-15T00:32:35.419Z,100.00
2023-04-15T00:32:46.802Z,100.00
2023-04-15T00:35:13.282Z,100.00
2023-04-15T00:37:35.339Z,100.00
2023-04-15T00:37:39.741Z,100.00
2023-04-15T00:40:07.834Z,100.00
2023-04-15T00:42:35.088Z,100.00
2023-04-15T00:42:35.364Z,100.00
2023-04-15T00:45:01.613Z,100.00
2023-04-15T00:47:29.838Z,100.00
2023-04-15T00:47:35.428Z,100.00
2023-04-15T00:49:56.543Z,100.00
2023-04-15T00:52:22.884Z,100.00
2023-04-15T00:52:35.353Z,100.00
2023-04-15T00:54:49.318Z,100.00
2023-04-15T00:57:15.832Z,100.00
2023-04-15T00:57:35.360Z,100.00
2023-04-15T00:59:42.205Z,100.00
2023-04-15T01:02:08.815Z,100.00
2023-04-15T01:02:35.463Z,100.00
2023-04-15T01:04:35.935Z,100.00
2023-04-15T01:07:02.568Z,100.00
2023-04-15T01:07:35.364Z,100.00
2023-04-15T01:09:29.187Z,100.00
2023-04-15T01:11:57.052Z,100.00
2023-04-15T01:12:35.349Z,100.00
2023-04-15T01:14:23.630Z,100.00
2023-04-15T01:16:50.012Z,100.00
2023-04-15T01:17:35.398Z,100.00
2023-04-15T01:19:17.957Z,100.00
2023-04-15T01:21:45.184Z,100.00
2023-04-15T01:22:35.354Z,100.00
2023-04-15T01:24:16.350Z,100.00
2023-04-15T01:26:44.584Z,100.00
2023-04-15T01:27:35.464Z,100.00
2023-04-15T01:29:11.105Z,100.00
2023-04-15T01:31:37.741Z,100.00
2023-04-15T01:32:35.380Z,100.00
2023-04-15T01:34:04.718Z,100.00
2023-04-15T01:36:31.056Z,100.00
2023-04-15T01:37:35.396Z,100.00
2023-04-15T01:38:58.421Z,100.00
2023-04-15T01:41:27.084Z,100.00
2023-04-15T01:42:35.369Z,100.00
2023-04-15T01:43:54.184Z,100.00
2023-04-15T01:46:20.931Z,100.00
2023-04-15T01:47:35.398Z,100.00
2023-04-15T01:48:47.357Z,100.00
2023-04-15T01:51:13.681Z,100.00
2023-04-15T01:52:35.359Z,100.00
2023-04-15T01:53:40.053Z,100.00
2023-04-15T01:56:07.248Z,100.00
2023-04-15T01:57:35.392Z,100.00
2023-04-15T01:58:33.714Z,100.00
2023-04-15T02:01:00.145Z,100.00
2023-04-15T02:02:35.482Z,100.00
2023-04-15T02:03:27.667Z,100.00
2023-04-15T02:05:54.118Z,100.00
2023-04-15T02:07:35.381Z,100.00
2023-04-15T02:08:20.664Z,100.00
2023-04-15T02:10:49.173Z,100.00
2023-04-15T02:12:35.363Z,100.00
2023-04-15T02:13:16.800Z,100.00
2023-04-15T02:15:50.794Z,100.00
2023-04-15T02:17:35.442Z,100.00
2023-04-15T02:18:17.304Z,100.00
2023-04-15T02:20:43.870Z,100.00
2023-04-15T02:22:35.379Z,100.00
2023-04-15T02:23:11.212Z,100.00
2023-04-15T02:25:38.995Z,100.00
2023-04-15T02:27:35.444Z,100.00
2023-04-15T02:28:06.278Z,100.00
2023-04-15T02:30:33.743Z,100.00
2023-04-15T02:32:35.422Z,100.00
2023-04-15T02:33:00.976Z,100.00
2023-04-15T02:35:27.764Z,100.00
2023-04-15T02:37:35.364Z,100.00
2023-04-15T02:37:54.296Z,100.00
2023-04-15T02:40:20.840Z,100.00
2023-04-15T02:42:35.399Z,100.00
2023-04-15T02:42:47.414Z,100.00
2023-04-15T02:45:14.077Z,100.00
2023-04-15T02:47:35.403Z,100.00
2023-04-15T02:47:41.533Z,100.00
2023-04-15T02:50:09.749Z,100.00
2023-04-15T02:52:36.145Z,100.00
2023-04-15T02:52:36.283Z,100.00
2023-04-15T02:55:05.178Z,100.00
2023-04-15T02:57:31.679Z,100.00
2023-04-15T02:57:35.348Z,100.00
2023-04-15T02:59:58.056Z,100.00
2023-04-15T03:02:24.772Z,100.00
2023-04-15T03:02:35.530Z,100.00
2023-04-15T03:04:51.683Z,100.00
2023-04-15T03:07:18.508Z,100.00
2023-04-15T03:07:35.377Z,100.00
2023-04-15T03:09:45.886Z,100.00
2023-04-15T03:12:12.254Z,100.00
2023-04-15T03:12:35.401Z,100.00
2023-04-15T03:14:38.690Z,100.00
2023-04-15T03:17:05.096Z,100.00
2023-04-15T03:17:35.398Z,100.00
2023-04-15T03:19:31.810Z,100.00
2023-04-15T03:21:58.169Z,100.00
2023-04-15T03:22:35.372Z,100.00
2023-04-15T03:24:24.898Z,100.00
2023-04-15T03:26:51.470Z,100.00
2023-04-15T03:27:35.470Z,100.00
2023-04-15T03:29:17.903Z,100.00
2023-04-15T03:31:44.268Z,100.00
2023-04-15T03:32:35.451Z,100.00
2023-04-15T03:34:12.782Z,100.00
2023-04-15T03:36:39.418Z,100.00
2023-04-15T03:37:35.379Z,100.00
2023-04-15T03:39:05.822Z,100.00
2023-04-15T03:41:33.012Z,100.00
2023-04-15T03:42:35.358Z,100.00
2023-04-15T03:43:59.481Z,100.00
2023-04-15T03:46:25.820Z,100.00
2023-04-15T03:47:35.453Z,100.00
2023-04-15T03:48:52.154Z,100.00
2023-04-15T03:51:18.545Z,100.00
2023-04-15T03:52:35.398Z,100.00
2023-04-15T03:53:44.909Z,100.00
2023-04-15T03:56:11.261Z,100.00
2023-04-15T03:57:35.356Z,100.00
2023-04-15T03:58:37.587Z,100.00
2023-04-15T04:01:03.922Z,100.00
2023-04-15T04:02:35.537Z,100.00
2023-04-15T04:03:30.470Z,100.00
2023-04-15T04:05:57.012Z,100.00
2023-04-15T04:07:35.382Z,100.00
2023-04-15T04:08:23.485Z,100.00
2023-04-15T04:10:49.934Z,100.00
2023-04-15T04:12:35.375Z,100.00
2023-04-15T04:13:16.396Z,100.00
2023-04-15T04:15:42.709Z,100.00
2023-04-15T04:17:35.439Z,100.00
2023-04-15T04:18:09.157Z,100.00
2023-04-15T04:20:35.700Z,100.00
2023-04-15T04:22:35.406Z,100.00
2023-04-15T04:23:02.038Z,100.00
2023-04-15T04:25:28.374Z,100.00
2023-04-15T04:27:35.464Z,100.00
2023-04-15T04:27:54.767Z,100.00
2023-04-15T04:30:21.307Z,100.00
2023-04-15T04:32:35.430Z,100.00
2023-04-15T04:32:47.791Z,100.00
2023-04-15T04:35:14.187Z,100.00
2023-04-15T04:37:35.386Z,100.00
2023-04-15T04:37:40.665Z,100.00
2023-04-15T04:40:08.060Z,100.00
2023-04-15T04:42:34.529Z,100.00
2023-04-15T04:42:36.789Z,100.00
2023-04-15T04:45:01.033Z,100.00
2023-04-15T04:47:27.497Z,100.00
2023-04-15T04:47:35.441Z,100.00
2023-04-15T04:49:53.852Z,100.00
2023-04-15T04:52:20.174Z,100.00
2023-04-15T04:52:35.352Z,100.00
2023-04-15T04:54:47.267Z,100.00
2023-04-15T04:57:13.772Z,100.00
2023-04-15T04:57:35.395Z,100.00
2023-04-15T04:59:40.581Z,100.00
2023-04-15T05:02:07.305Z,100.00
2023-04-15T05:02:35.579Z,100.00
2023-04-15T05:04:34.416Z,100.00
2023-04-15T05:07:00.872Z,100.00
2023-04-15T05:07:35.390Z,100.00
2023-04-15T05:09:27.192Z,100.00
2023-04-15T05:11:53.692Z,100.00
2023-04-15T05:12:35.382Z,100.00
2023-04-15T05:14:23.413Z,100.00
2023-04-15T05:16:50.214Z,100.00
2023-04-15T05:17:35.470Z,100.00
2023-04-15T05:19:16.614Z,100.00
2023-04-15T05:21:43.027Z,100.00
2023-04-15T05:22:35.401Z,100.00
2023-04-15T05:24:09.407Z,100.00
2023-04-15T05:26:35.976Z,100.00
2023-04-15T05:27:35.468Z,100.00
2023-04-15T05:29:02.728Z,100.00
2023-04-15T05:31:29.343Z,100.00
2023-04-15T05:32:35.419Z,100.00
2023-04-15T05:33:55.828Z,100.00
2023-04-15T05:36:22.200Z,100.00
2023-04-15T05:37:35.405Z,100.00
2023-04-15T05:38:48.579Z,100.00
2023-04-15T05:41:17.080Z,100.00
2023-04-15T05:42:35.417Z,100.00
2023-04-15T05:43:44.801Z,100.00
2023-04-15T05:46:11.194Z,100.00
2023-04-15T05:47:35.419Z,100.00
2023-04-15T05:48:37.633Z,100.00
2023-04-15T05:51:04.310Z,100.00
2023-04-15T05:52:35.420Z,100.00
2023-04-15T05:53:30.682Z,100.00
2023-04-15T05:55:57.150Z,100.00
2023-04-15T05:57:35.399Z,100.00
2023-04-15T05:58:23.511Z,100.00
2023-04-15T06:00:49.926Z,100.00
2023-04-15T06:02:35.544Z,100.00
2023-04-15T06:03:16.817Z,100.00
2023-04-15T06:05:44.844Z,100.00
2023-04-15T06:07:35.409Z,100.00
2023-04-15T06:08:11.320Z,100.00
2023-04-15T06:10:37.798Z,100.00
2023-04-15T06:12:35.438Z,100.00
2023-04-15T06:13:04.419Z,100.00
2023-04-15T06:15:31.688Z,100.00
2023-04-15T06:17:35.450Z,100.00
2023-04-15T06:18:00.335Z,100.00
2023-04-15T06:20:26.698Z,100.00
2023-04-15T06:22:35.416Z,100.00
2023-04-15T06:22:53.238Z,100.00
2023-04-15T06:25:19.896Z,100.00
2023-04-15T06:27:35.493Z,100.00
2023-04-15T06:27:46.450Z,100.00
2023-04-15T06:30:12.858Z,100.00
2023-04-15T06:32:35.473Z,100.00
2023-04-15T06:32:39.502Z,100.00
2023-04-15T06:35:06.161Z,100.00
2023-04-15T06:37:34.657Z,100.00
2023-04-15T06:37:35.430Z,100.00
2023-04-15T06:40:01.095Z,100.00
2023-04-15T06:42:27.498Z,100.00
2023-04-15T06:42:35.423Z,100.00
2023-04-15T06:44:53.905Z,100.00
2023-04-15T06:47:20.295Z,100.00
2023-04-15T06:47:35.460Z,100.00
2023-04-15T06:49:46.645Z,100.00
2023-04-15T06:52:13.054Z,100.00
2023-04-15T06:52:35.445Z,100.00
2023-04-15T06:54:39.508Z,100.00
2023-04-15T06:57:06.990Z,100.00
2023-04-15T06:57:35.423Z,100.00
2023-04-15T06:59:33.349Z,100.00
2023-04-15T07:01:59.762Z,100.00
2023-04-15T07:02:35.540Z,100.00
2023-04-15T07:04:26.212Z,100.00
2023-04-15T07:06:58.024Z,100.00
2023-04-15T07:07:35.395Z,100.00
2023-04-15T07:09:24.816Z,100.00
2023-04-15T07:11:51.549Z,99.80
2023-04-15T07:12:35.423Z,99.80
2023-04-15T07:14:18.284Z,97.51
2023-04-15T07:16:44.781Z,94.80
2023-04-15T07:17:35.503Z,94.80
2023-04-15T07:19:11.646Z,95.18
2023-04-15T07:21:39.982Z,94.17
2023-04-15T07:22:35.440Z,94.17
2023-04-15T07:24:07.839Z,92.04
2023-04-15T07:26:34.243Z,93.06
2023-04-15T07:27:35.514Z,93.06
2023-04-15T07:29:00.797Z,91.02
2023-04-15T07:31:27.716Z,90.77
2023-04-15T07:32:35.468Z,90.77
2023-04-15T07:33:54.181Z,88.50
2023-04-15T07:36:20.703Z,87.58
2023-04-15T07:37:35.412Z,87.58
2023-04-15T07:38:47.482Z,86.54
2023-04-15T07:41:14.186Z,83.17
2023-04-15T07:42:35.428Z,83.17
2023-04-15T07:43:40.548Z,82.21
2023-04-15T07:46:06.937Z,81.65
2023-04-15T07:47:35.498Z,81.65
2023-04-15T07:48:34.909Z,82.31
2023-04-15T07:51:02.756Z,79.34
2023-04-15T07:52:35.425Z,79.34
2023-04-15T07:53:29.240Z,77.89
2023-04-15T07:55:55.941Z,76.77
2023-04-15T07:57:35.433Z,76.77
2023-04-15T07:58:22.253Z,76.49
2023-04-15T08:00:48.920Z,77.12
2023-04-15T08:02:36.961Z,77.12
2023-04-15T08:03:15.596Z,77.13
2023-04-15T08:05:42.179Z,75.65
2023-04-15T08:07:35.425Z,75.65
2023-04-15T08:08:08.815Z,73.32
2023-04-15T08:10:37.689Z,73.41
2023-04-15T08:12:35.457Z,73.41
2023-04-15T08:13:04.085Z,74.04
2023-04-15T08:15:32.837Z,74.12
2023-04-15T08:17:35.438Z,74.12
2023-04-15T08:18:00.876Z,73.04
2023-04-15T08:20:27.663Z,72.08
2023-04-15T08:22:35.426Z,72.08
2023-04-15T08:22:54.130Z,69.98
2023-04-15T08:25:20.599Z,69.32
2023-04-15T08:27:35.388Z,69.32
2023-04-15T08:27:47.161Z,69.41
2023-04-15T08:30:14.039Z,70.51
2023-04-15T08:32:35.432Z,70.51
2023-04-15T08:32:42.627Z,69.02
2023-04-15T08:35:09.298Z,68.10
2023-04-15T08:37:35.632Z,67.36
2023-04-15T08:37:35.801Z,67.36
2023-04-15T08:40:02.065Z,66.47
2023-04-15T08:42:32.688Z,66.71
2023-04-15T08:42:35.428Z,66.71
2023-04-15T08:45:01.637Z,64.88
2023-04-15T08:47:31.808Z,63.64
2023-04-15T08:47:35.436Z,63.64
2023-04-15T08:49:58.518Z,63.81
2023-04-15T08:52:26.361Z,66.19
2023-04-15T08:52:35.461Z,66.19
2023-04-15T08:54:57.445Z,65.83
2023-04-15T08:57:28.108Z,65.13
2023-04-15T08:57:35.438Z,65.13
2023-04-15T08:59:56.453Z,63.98
2023-04-15T09:02:24.331Z,64.69
2023-04-15T09:02:35.520Z,64.69
2023-04-15T09:04:50.813Z,64.09
2023-04-15T09:07:17.294Z,65.44
2023-04-15T09:07:35.449Z,65.44
2023-04-15T09:09:43.647Z,65.82
2023-04-15T09:12:11.606Z,66.37
2023-04-15T09:12:35.441Z,66.37
2023-04-15T09:14:40.560Z,67.45
2023-04-15T09:17:10.420Z,66.10
2023-04-15T09:17:35.454Z,66.10
2023-04-15T09:19:36.921Z,65.26
2023-04-15T09:22:03.293Z,65.08
2023-04-15T09:22:35.425Z,65.08
2023-04-15T09:24:40.944Z,66.13
2023-04-15T09:27:07.534Z,64.53
2023-04-15T09:27:35.517Z,64.53
2023-04-15T09:29:33.889Z,64.60
2023-04-15T09:32:14.096Z,62.17
2023-04-15T09:32:35.459Z,62.17
2023-04-15T09:34:40.564Z,62.94
2023-04-15T09:37:08.018Z,63.12
2023-04-15T09:37:35.523Z,63.12
2023-04-15T09:39:52.506Z,64.19
2023-04-15T09:42:26.646Z,63.15
2023-04-15T09:42:35.428Z,63.15
2023-04-15T09:44:53.151Z,62.94
2023-04-15T09:47:32.644Z,62.97
2023-04-15T09:47:35.455Z,62.97
2023-04-15T09:50:00.562Z,62.97
2023-04-15T09:52:27.273Z,63.07
2023-04-15T09:52:35.436Z,63.07
2023-04-15T09:54:57.705Z,63.45
2023-04-15T09:57:24.357Z,63.50
2023-04-15T09:57:35.459Z,63.50
2023-04-15T09:59:51.450Z,62.97
2023-04-15T10:02:21.296Z,63.16
2023-04-15T10:02:35.605Z,63.16
2023-04-15T10:04:48.877Z,61.62
2023-04-15T10:07:18.026Z,61.25
2023-04-15T10:07:35.432Z,61.25
2023-04-15T10:09:46.248Z,61.63
2023-04-15T10:12:13.334Z,61.85
2023-04-15T10:12:35.461Z,61.85
2023-04-15T10:14:41.359Z,61.23
2023-04-15T10:17:08.284Z,61.06
2023-04-15T10:17:35.697Z,61.06
2023-04-15T10:19:37.810Z,61.52
2023-04-15T10:22:04.514Z,61.27
2023-04-15T10:22:35.461Z,61.27
2023-04-15T10:24:34.170Z,60.70
2023-04-15T10:27:00.855Z,61.30
2023-04-15T10:27:35.428Z,61.30
2023-04-15T10:29:30.141Z,61.94
2023-04-15T10:31:57.000Z,60.64
2023-04-15T10:32:35.497Z,60.64
2023-04-15T10:34:25.314Z,60.59
2023-04-15T10:36:51.936Z,60.26
2023-04-15T10:37:35.565Z,60.26
2023-04-15T10:39:34.284Z,58.50
2023-04-15T10:42:21.109Z,59.54
2023-04-15T10:42:35.435Z,59.54
2023-04-15T10:44:52.200Z,60.39
2023-04-15T10:47:21.103Z,60.91
2023-04-15T10:47:35.484Z,60.91
2023-04-15T10:49:58.788Z,59.98
2023-04-15T10:52:28.195Z,60.19
2023-04-15T10:52:35.435Z,60.19
2023-04-15T10:55:12.113Z,61.20
2023-04-15T10:57:35.444Z,61.20
2023-04-15T10:57:39.848Z,60.64
2023-04-15T11:00:13.777Z,61.44
2023-04-15T11:02:35.714Z,61.44
2023-04-15T11:02:58.247Z,62.07
2023-04-15T11:05:43.021Z,61.84
2023-04-15T11:07:35.436Z,61.84
2023-04-15T11:08:13.538Z,61.67
2023-04-15T11:10:39.867Z,61.84
2023-04-15T11:12:35.458Z,61.84
2023-04-15T11:13:17.121Z,62.07
2023-04-15T11:15:45.502Z,62.77
2023-04-15T11:17:35.485Z,62.77
2023-04-15T11:18:17.227Z,65.03
2023-04-15T11:20:45.348Z,64.95
2023-04-15T11:22:35.470Z,64.95
2023-04-15T11:23:14.511Z,64.33
2023-04-15T11:25:43.235Z,65.27
2023-04-15T11:27:35.438Z,65.27
2023-04-15T11:28:10.884Z,65.31
2023-04-15T11:30:38.320Z,65.72
2023-04-15T11:32:35.443Z,65.72
2023-04-15T11:33:09.585Z,66.85
2023-04-15T11:35:36.373Z,64.93
2023-04-15T11:37:35.560Z,64.93
2023-04-15T11:38:09.105Z,65.69
2023-04-15T11:40:35.745Z,64.89
2023-04-15T11:42:48.622Z,18
2023-04-15T11:43:06.507Z,67.01
2023-04-15T11:45:33.058Z,66.52
2023-04-15T11:47:35.501Z,66.52
2023-04-15T11:48:10.583Z,67.88
2023-04-15T11:50:40.537Z,66.50
2023-04-15T11:52:35.448Z,66.50
2023-04-15T11:53:09.094Z,67.11
2023-04-15T11:55:51.616Z,68.10
2023-04-15T11:57:35.428Z,68.10
2023-04-15T11:58:23.308Z,69.21
2023-04-15T12:00:58.735Z,70.11
2023-04-15T12:02:35.654Z,70.11
2023-04-15T12:03:39.078Z,70.75
2023-04-15T12:06:21.926Z,69.78
2023-04-15T12:07:35.481Z,69.78
2023-04-15T12:09:07.489Z,68.61
2023-04-15T12:11:39.681Z,67.49
2023-04-15T12:12:35.473Z,67.49
2023-04-15T12:14:26.098Z,69.06
2023-04-15T12:16:58.291Z,66.47
2023-04-15T12:17:50.967Z,66.47
2023-04-15T12:19:36.972Z,66.22
2023-04-15T12:22:06.753Z,67.10
2023-04-15T12:22:35.444Z,67.10
2023-04-15T12:24:34.714Z,69.11
2023-04-15T12:27:06.081Z,70.78
2023-04-15T12:27:35.474Z,70.78
2023-04-15T12:29:34.109Z,70.59
2023-04-15T12:32:11.958Z,69.37
2023-04-15T12:32:35.513Z,69.37
2023-04-15T12:34:39.362Z,68.17
2023-04-15T12:37:07.701Z,69.96
2023-04-15T12:37:35.481Z,69.96
2023-04-15T12:39:39.339Z,71.64
2023-04-15T12:42:06.550Z,72.35
2023-04-15T12:42:35.485Z,72.35
2023-04-15T12:44:33.922Z,71.62
2023-04-15T12:47:00.547Z,72.09
2023-04-15T12:47:35.471Z,72.09
2023-04-15T12:49:29.952Z,72.33
2023-04-15T12:51:57.780Z,72.01
2023-04-15T12:52:35.445Z,72.01
2023-04-15T12:54:24.198Z,70.90
2023-04-15T12:56:51.150Z,70.92
2023-04-15T12:57:35.466Z,70.92
2023-04-15T12:59:18.624Z,72.48
2023-04-15T13:01:47.369Z,72.58
2023-04-15T13:02:35.716Z,72.58
2023-04-15T13:04:14.694Z,73.60
2023-04-15T13:06:41.105Z,73.32
2023-04-15T13:07:35.466Z,73.32
2023-04-15T13:09:07.509Z,74.24
2023-04-15T13:11:36.547Z,72.98
2023-04-15T13:12:35.491Z,72.98
2023-04-15T13:14:05.736Z,73.69
2023-04-15T13:16:33.327Z,73.78
2023-04-15T13:17:35.490Z,73.78
2023-04-15T13:19:00.844Z,73.26
2023-04-15T13:21:27.697Z,74.35
2023-04-15T13:22:35.475Z,74.35
2023-04-15T13:23:54.627Z,74.43
2023-04-15T13:26:21.266Z,75.12
2023-04-15T13:27:35.478Z,75.12
2023-04-15T13:28:49.876Z,75.55
2023-04-15T13:31:16.399Z,75.94
2023-04-15T13:32:35.521Z,75.94
2023-04-15T13:33:42.837Z,75.83
2023-04-15T13:36:09.398Z,75.35
2023-04-15T13:37:35.523Z,75.35
2023-04-15T13:38:36.162Z,75.29
2023-04-15T13:41:02.594Z,75.22
2023-04-15T13:42:35.458Z,75.22
2023-04-15T13:43:29.144Z,75.25
2023-04-15T13:45:55.966Z,75.76
2023-04-15T13:47:35.571Z,75.76
2023-04-15T13:48:22.324Z,76.02
2023-04-15T13:50:48.708Z,75.46
2023-04-15T13:52:35.520Z,75.46
2023-04-15T13:53:15.121Z,75.69
2023-04-15T13:55:42.568Z,76.74
2023-04-15T13:57:35.540Z,76.74
2023-04-15T13:58:09.568Z,77.14
2023-04-15T14:00:35.959Z,78.36
2023-04-15T14:02:35.686Z,78.36
2023-04-15T14:03:02.515Z,79.15
2023-04-15T14:05:29.048Z,79.33
2023-04-15T14:07:35.532Z,79.33
2023-04-15T14:07:57.539Z,79.34
2023-04-15T14:10:23.914Z,79.48
2023-04-15T14:12:35.568Z,79.48
2023-04-15T14:12:50.611Z,79.76
2023-04-15T14:15:17.113Z,79.50
2023-04-15T14:17:35.587Z,79.50
2023-04-15T14:17:43.554Z,81.05
2023-04-15T14:20:10.329Z,80.97
2023-04-15T14:22:36.712Z,80.18
2023-04-15T14:22:36.833Z,80.18
2023-04-15T14:25:03.927Z,79.89
2023-04-15T14:27:30.345Z,78.13
2023-04-15T14:27:35.554Z,78.13
2023-04-15T14:29:57.735Z,78.00
2023-04-15T14:32:26.301Z,77.54
2023-04-15T14:32:35.554Z,77.54
2023-04-15T14:34:52.678Z,78.58
2023-04-15T14:37:19.217Z,76.98
2023-04-15T14:37:35.618Z,76.98
2023-04-15T14:39:45.598Z,75.51
2023-04-15T14:42:11.936Z,74.97
2023-04-15T14:42:35.575Z,74.97
2023-04-15T14:44:38.310Z,74.97
2023-04-15T14:47:05.458Z,75.54
2023-04-15T14:47:35.587Z,75.54
2023-04-15T14:49:32.131Z,76.10
2023-04-15T14:51:58.493Z,76.29
2023-04-15T14:52:35.565Z,76.29
2023-04-15T14:54:24.787Z,76.92
2023-04-15T14:56:51.192Z,78.19
2023-04-15T14:57:35.557Z,78.19
2023-04-15T14:59:17.762Z,79.70
2023-04-15T15:01:44.342Z,80.73
2023-04-15T15:04:11.436Z,81.36
2023-04-15T15:06:37.903Z,82.76
2023-04-15T15:07:35.621Z,82.76
2023-04-15T15:09:05.096Z,84.61
2023-04-15T15:11:31.716Z,83.04
2023-04-15T15:12:35.557Z,83.04
2023-04-15T15:13:58.416Z,82.33
2023-04-15T15:16:25.563Z,80.42
2023-04-15T15:17:35.604Z,80.42
2023-04-15T15:18:51.976Z,78.84
2023-04-15T15:21:18.593Z,78.67
2023-04-15T15:22:35.574Z,78.67
2023-04-15T15:23:45.632Z,78.01
2023-04-15T15:26:12.524Z,75.98
2023-04-15T15:27:38.159Z,75.98
2023-04-15T15:28:38.985Z,75.60
2023-04-15T15:31:05.848Z,77.10
2023-04-15T15:32:35.630Z,77.10
2023-04-15T15:33:32.750Z,81.70
2023-04-15T15:35:59.262Z,83.58
2023-04-15T15:37:35.635Z,83.58
2023-04-15T15:38:26.209Z,85.61
2023-04-15T15:40:52.676Z,87.84
2023-04-15T15:42:35.574Z,87.84
2023-04-15T15:43:19.079Z,89.17
2023-04-15T15:45:45.673Z,88.59
2023-04-15T15:47:35.585Z,88.59
2023-04-15T15:48:12.272Z,88.95
2023-04-15T15:50:38.721Z,90.97
2023-04-15T15:52:35.598Z,90.97
2023-04-15T15:53:05.074Z,91.68
2023-04-15T15:55:31.432Z,93.48
2023-04-15T15:57:35.547Z,93.48
2023-04-15T15:57:57.791Z,94.66
2023-04-15T16:00:24.366Z,94.77
2023-04-15T16:03:04.395Z,94.77
2023-04-15T16:03:06.878Z,94.74
2023-04-15T16:05:34.406Z,95.13
2023-04-15T16:07:35.564Z,95.13
2023-04-15T16:08:00.790Z,95.16
2023-04-15T16:10:27.494Z,97.09
2023-04-15T16:12:35.542Z,97.09
2023-04-15T16:12:54.405Z,99.30
2023-04-15T16:15:23.181Z,100.00
2023-04-15T16:17:35.617Z,100.00
2023-04-15T16:17:49.582Z,100.00
2023-04-15T16:20:16.637Z,100.00
2023-04-15T16:22:35.575Z,100.00
2023-04-15T16:22:43.207Z,100.00
2023-04-15T16:25:09.867Z,100.00
2023-04-15T16:27:54.224Z,100.00
2023-04-15T16:28:05.558Z,100.00
2023-04-15T16:30:25.600Z,100.00
2023-04-15T16:32:35.559Z,100.00
2023-04-15T16:32:52.090Z,99.34
2023-04-15T16:35:18.516Z,100.00
2023-04-15T16:37:35.654Z,100.00
2023-04-15T16:37:44.899Z,100.00
2023-04-15T16:40:11.986Z,100.00
2023-04-15T16:42:35.596Z,100.00
2023-04-15T16:42:38.317Z,100.00
2023-04-15T16:45:05.230Z,100.00
2023-04-15T16:47:31.615Z,99.77
2023-04-15T16:47:35.648Z,99.77
2023-04-15T16:49:57.914Z,100.00
2023-04-15T16:52:24.296Z,99.51
2023-04-15T16:52:35.566Z,99.51
2023-04-15T16:54:50.809Z,99.52
2023-04-15T16:57:17.204Z,100.00
2023-04-15T16:57:50.676Z,100.00
2023-04-15T16:59:44.558Z,99.75
2023-04-15T17:02:13.152Z,99.68
2023-04-15T17:02:35.730Z,99.68
2023-04-15T17:04:40.180Z,99.70
2023-04-15T17:07:06.780Z,100.00
2023-04-15T17:07:35.590Z,100.00
2023-04-15T17:09:33.180Z,100.00
2023-04-15T17:11:59.756Z,100.00
2023-04-15T17:12:35.590Z,100.00
2023-04-15T17:14:27.584Z,100.00
2023-04-15T17:16:54.203Z,100.00
2023-04-15T17:17:35.653Z,100.00
2023-04-15T17:19:20.657Z,100.00
2023-04-15T17:21:47.065Z,99.54
2023-04-15T17:22:35.567Z,99.54
2023-04-15T17:24:13.527Z,99.42
2023-04-15T17:26:40.004Z,99.79
2023-04-15T17:27:35.559Z,99.79
2023-04-15T17:29:06.682Z,100.00
2023-04-15T17:31:33.350Z,99.57
2023-04-15T17:32:35.625Z,99.57
2023-04-15T17:34:04.844Z,99.06
2023-04-15T17:36:36.091Z,98.74
2023-04-15T17:37:35.563Z,98.74
2023-04-15T17:39:02.817Z,99.48
2023-04-15T17:41:29.419Z,99.73
2023-04-15T17:42:35.565Z,99.73
2023-04-15T17:43:55.952Z,99.62
2023-04-15T17:46:22.306Z,99.75
2023-04-15T17:47:35.647Z,99.75
2023-04-15T17:48:49.467Z,99.83
2023-04-15T17:51:16.959Z,100.00
2023-04-15T17:52:35.567Z,100.00
2023-04-15T17:53:43.324Z,100.00
2023-04-15T17:56:09.746Z,100.00
2023-04-15T17:57:35.567Z,100.00
2023-04-15T17:58:36.136Z,100.00
2023-04-15T18:01:02.814Z,100.00
2023-04-15T18:02:37.426Z,100.00
2023-04-15T18:03:29.282Z,100.00
2023-04-15T18:05:55.855Z,100.00
2023-04-15T18:07:35.595Z,100.00
2023-04-15T18:08:22.241Z,100.00
2023-04-15T18:10:48.618Z,100.00
2023-04-15T18:12:35.601Z,100.00
2023-04-15T18:13:14.960Z,100.00
2023-04-15T18:15:41.374Z,100.00
2023-04-15T18:17:35.608Z,100.00
2023-04-15T18:18:07.745Z,100.00
2023-04-15T18:20:34.212Z,100.00
2023-04-15T18:22:35.594Z,100.00
2023-04-15T18:23:00.548Z,100.00
2023-04-15T18:25:27.008Z,100.00
2023-04-15T18:27:35.602Z,100.00
2023-04-15T18:27:54.885Z,100.00
2023-04-15T18:30:21.355Z,100.00
2023-04-15T18:32:35.645Z,100.00
2023-04-15T18:32:47.724Z,100.00
2023-04-15T18:35:14.267Z,100.00
2023-04-15T18:37:35.584Z,100.00
2023-04-15T18:37:40.679Z,100.00
2023-04-15T18:40:07.589Z,100.00
2023-04-15T18:42:33.982Z,100.00
2023-04-15T18:42:35.621Z,100.00
2023-04-15T18:45:00.483Z,100.00
2023-04-15T18:47:27.640Z,100.00
2023-04-15T18:47:35.622Z,100.00
2023-04-15T18:49:54.174Z,100.00
2023-04-15T18:52:20.930Z,100.00
2023-04-15T18:52:35.596Z,100.00
2023-04-15T18:54:47.277Z,100.00
2023-04-15T18:57:13.640Z,100.00
2023-04-15T18:57:36.139Z,100.00
2023-04-15T18:59:43.250Z,100.00
2023-04-15T19:02:09.654Z,100.00
2023-04-15T19:02:35.747Z,100.00
2023-04-15T19:04:36.250Z,100.00
2023-04-15T19:07:03.197Z,100.00
2023-04-15T19:07:35.595Z,100.00
2023-04-15T19:09:29.682Z,100.00
2023-04-15T19:11:56.706Z,100.00
2023-04-15T19:12:35.580Z,100.00
2023-04-15T19:14:23.148Z,100.00
2023-04-15T19:16:49.656Z,100.00
2023-04-15T19:17:35.638Z,100.00
2023-04-15T19:19:16.305Z,100.00
2023-04-15T19:21:42.745Z,100.00
2023-04-15T19:22:35.656Z,100.00
2023-04-15T19:24:09.977Z,100.00
2023-04-15T19:26:36.900Z,100.00
2023-04-15T19:27:35.616Z,100.00
2023-04-15T19:29:03.659Z,100.00
2023-04-15T19:31:30.230Z,100.00
2023-04-15T19:32:35.685Z,100.00
2023-04-15T19:33:56.899Z,100.00
2023-04-15T19:36:26.246Z,100.00
2023-04-15T19:37:35.599Z,100.00
2023-04-15T19:38:52.719Z,100.00
2023-04-15T19:41:19.124Z,100.00
2023-04-15T19:42:35.627Z,100.00
2023-04-15T19:43:45.672Z,100.00
2023-04-15T19:46:13.176Z,100.00
2023-04-15T19:47:35.614Z,100.00
2023-04-15T19:48:39.614Z,100.00
2023-04-15T19:51:06.096Z,100.00
2023-04-15T19:52:35.572Z,100.00
2023-04-15T19:53:32.457Z,100.00
2023-04-15T19:55:58.889Z,100.00
2023-04-15T19:57:35.597Z,100.00
2023-04-15T19:58:25.421Z,100.00
2023-04-15T20:00:51.829Z,100.00
2023-04-15T20:02:35.699Z,100.00
2023-04-15T20:03:18.860Z,100.00
2023-04-15T20:05:45.352Z,100.00
2023-04-15T20:07:35.618Z,100.00
2023-04-15T20:08:11.909Z,100.00
2023-04-15T20:10:38.331Z,100.00
2023-04-15T20:12:50.191Z,100.00
2023-04-15T20:13:04.790Z,100.00
2023-04-15T20:15:31.573Z,100.00
2023-04-15T20:17:35.613Z,100.00
2023-04-15T20:17:57.926Z,100.00
2023-04-15T20:20:24.386Z,100.00
2023-04-15T20:22:35.619Z,100.00
2023-04-15T20:22:52.567Z,100.00
2023-04-15T20:25:19.015Z,100.00
2023-04-15T20:27:35.586Z,100.00
2023-04-15T20:27:45.371Z,100.00
2023-04-15T20:30:11.789Z,100.00
2023-04-15T20:32:36.372Z,100.00
2023-04-15T20:32:38.755Z,100.00
2023-04-15T20:35:05.714Z,100.00
2023-04-15T20:37:33.461Z,100.00
2023-04-15T20:37:35.614Z,100.00
2023-04-15T20:40:00.618Z,100.00
2023-04-15T20:42:27.043Z,100.00
2023-04-15T20:42:35.578Z,100.00
2023-04-15T20:44:55.590Z,100.00
2023-04-15T20:47:21.959Z,100.00
2023-04-15T20:47:35.648Z,100.00
2023-04-15T20:49:48.505Z,100.00
2023-04-15T20:52:14.878Z,100.00
2023-04-15T20:52:35.588Z,100.00
2023-04-15T20:54:41.451Z,100.00
2023-04-15T20:57:07.784Z,100.00